Airport View

Enter AWOS ICAO identifier for current METAR.

ex. KFNL

KFRR 192035Z AUTO 00000KT SCT065 33/22 A2999 RMK AO1

19 Aug 2019 20:51

Frequency: 121.85

Phone: 540-635-5377

Other Area AWOS: KOKV - KLUA - K8W2 - KCJR

TAF KMRB 191725Z 1918/2018 31006KT P6SM BKN130 FM200000 27004KT P6SM SKC FM200900 00000KT 4SM BR SKC FM201300 00000KT P6SM SKC FM201500 VRB03KT P6SM SCT080 FM201700 VRB03KT P6SM BKN045